メインページ
METAR-TAF:

METAR-TAF

空港 :

ソフィア, ブルガリア

ソフィア空港

緯度: 42-39N, 経度: 023-23E, 海抜: 586m

現時点の気象観測

当レポートは36分前の04:30(UTC)に作成
変向風 1kt
気温 6°C
湿度 100%
気圧 1020 hPa
視程: 8000m

METAR: LBSF 210430Z VRB01KT 8000 NSC 06/06 Q1020 TEMPO 5000 BR

時間: 08:06 (05:06 UTC)

予報

当レポートは6時間6分前の23:00(UTC)に作成
予報は21日の 00時(UTC)から 21日の 24時(UTC)まで有効
変向風 4kt
視程10km以上
1,500メートル以下は雲なし、積乱雲なし
21日の 00時(UTC)から 21日の 02時(UTC)まで徐々に
視程: 5000m
21日の 03時(UTC)から 21日の 07時(UTC)まで一時的に
視程: 1500m
確率 40%
21日の 04時(UTC)から 21日の 06時(UTC)まで
視程: 0400m
高度300ftの千切れ雲あり
散在霧
21日の 07時(UTC)から 21日の 09時(UTC)まで徐々に
視程10km以上
1,500メートル以下は雲なし、積乱雲なし
21日の 10時(UTC)から 21日の 12時(UTC)まで徐々に
西/北西の風 10kt

TAF: LBSF 202300Z 2100/2124 VRB04KT CAVOK BECMG 2100/2102 5000 BR TEMPO 2103/2107 1500 BR PROB40 2104/2106 0400 BCFG BKN003 BECMG 2107/2109 CAVOK BECMG 2110/2112 29010KT

4,000以上の空港の気象観測と天気予報(METAR報とTAF報)

利用可能な観測所は地図上に黄色い丸と赤い丸で示す。

丸の上にカーソルを重ねると観測所名を参照できる。

次にクリックすると気象観測と天気予報を参照できる。

マップの切り替え:黒色「×」印の緑ボタンをクリックして拡大、「-」印の緑ボタンをクリックして縮小、緑色の三角印をクリックして隣りの地図に切り替え


METAR-TAF: